createdAt,value
2019-02-17T00:03:12.635Z,70.73
2019-02-17T00:08:18.174Z,73.07
2019-02-17T00:13:24.111Z,89.23
2019-02-17T00:18:29.598Z,71.87
2019-02-17T00:23:35.044Z,70.57
2019-02-17T00:28:40.524Z,63.30
2019-02-17T00:33:46.074Z,73.37
2019-02-17T00:38:52.146Z,97.77
2019-02-17T00:43:57.959Z,114.00
2019-02-17T00:49:03.504Z,91.93
2019-02-17T00:54:09.319Z,92.70
2019-02-17T00:59:14.764Z,100.90
2019-02-17T01:04:20.239Z,104.87
2019-02-17T01:09:25.741Z,98.03
2019-02-17T01:14:31.575Z,84.13
2019-02-17T01:19:37.015Z,95.80
2019-02-17T01:24:42.482Z,78.23
2019-02-17T01:29:48.274Z,58.40
2019-02-17T01:34:53.703Z,59.87
2019-02-17T01:39:59.152Z,55.60
2019-02-17T01:45:05.272Z,56.13
2019-02-17T01:50:10.729Z,60.83
2019-02-17T01:55:16.512Z,48.10
2019-02-17T02:00:22.315Z,47.83
2019-02-17T02:05:28.138Z,37.83
2019-02-17T02:10:33.951Z,41.20
2019-02-17T02:15:39.389Z,37.63
2019-02-17T02:20:45.155Z,40.37
2019-02-17T02:25:50.585Z,44.67
2019-02-17T02:30:56.028Z,37.97
2019-02-17T02:36:01.486Z,37.03
2019-02-17T02:41:07.254Z,38.37
2019-02-17T02:46:12.795Z,26.10
2019-02-17T02:51:18.191Z,31.87
2019-02-17T02:56:23.646Z,39.10
2019-02-17T03:01:29.412Z,30.87
2019-02-17T03:06:40.118Z,33.50
2019-02-17T03:11:45.561Z,37.77
2019-02-17T03:16:51.329Z,31.47
2019-02-17T03:21:56.760Z,28.70
2019-02-17T03:27:02.239Z,31.20
2019-02-17T03:32:07.716Z,28.90
2019-02-17T03:37:13.531Z,29.50
2019-02-17T03:42:18.975Z,35.67
2019-02-17T03:47:24.419Z,31.17
2019-02-17T03:52:30.043Z,26.70
2019-02-17T03:57:35.482Z,27.37
2019-02-17T04:02:41.047Z,31.63
2019-02-17T04:07:46.523Z,31.07
2019-02-17T04:12:52.344Z,23.80
2019-02-17T04:17:58.149Z,24.60
2019-02-17T04:23:03.638Z,30.60
2019-02-17T04:28:09.447Z,27.37
2019-02-17T04:33:14.888Z,26.77
2019-02-17T04:38:20.671Z,23.80
2019-02-17T04:43:26.120Z,24.73
2019-02-17T04:48:31.580Z,24.87
2019-02-17T04:53:37.005Z,23.93
2019-02-17T04:58:42.794Z,25.20
2019-02-17T05:03:48.591Z,22.73
2019-02-17T05:08:54.082Z,26.97
2019-02-17T05:13:59.567Z,21.00
2019-02-17T05:19:05.346Z,22.30
2019-02-17T05:24:11.144Z,20.67
2019-02-17T05:29:16.590Z,20.47
2019-02-17T05:34:22.048Z,29.27
2019-02-17T05:39:27.503Z,22.70
2019-02-17T05:44:32.931Z,20.73
2019-02-17T05:49:38.378Z,20.93
2019-02-17T05:54:43.926Z,26.40
2019-02-17T05:59:49.679Z,20.83
2019-02-17T06:04:55.162Z,24.73
2019-02-17T06:10:00.704Z,22.17
2019-02-17T06:15:06.279Z,20.60
2019-02-17T06:20:12.002Z,18.33
2019-02-17T06:25:17.441Z,20.70
2019-02-17T06:30:22.904Z,27.43
2019-02-17T06:35:28.356Z,22.43
2019-02-17T06:40:33.795Z,23.63
2019-02-17T06:45:39.583Z,22.50
2019-02-17T06:50:45.159Z,19.70
2019-02-17T06:55:54.947Z,21.70
2019-02-17T07:01:01.650Z,18.37
2019-02-17T07:06:13.790Z,20.33
2019-02-17T07:11:19.294Z,17.60
2019-02-17T07:16:24.767Z,25.93
2019-02-17T07:21:30.209Z,22.10
2019-02-17T07:26:35.683Z,17.90
2019-02-17T07:31:41.130Z,19.73
2019-02-17T07:36:46.609Z,24.03
2019-02-17T07:41:52.058Z,20.83
2019-02-17T07:46:57.526Z,24.73
2019-02-17T07:52:04.635Z,34.47
2019-02-17T07:57:10.543Z,39.67
2019-02-17T08:02:16.177Z,30.83
2019-02-17T08:07:21.689Z,22.70
2019-02-17T08:12:27.138Z,26.27
2019-02-17T08:17:32.937Z,32.10
2019-02-17T08:22:38.796Z,27.00
2019-02-17T08:27:44.283Z,24.60
2019-02-17T08:32:50.067Z,24.87
2019-02-17T08:37:55.591Z,28.60
2019-02-17T08:43:01.023Z,26.17
2019-02-17T08:48:06.839Z,27.70
2019-02-17T08:53:12.283Z,28.87
2019-02-17T08:58:17.720Z,23.23
2019-02-17T09:03:23.144Z,28.73
2019-02-17T09:08:28.641Z,28.63
2019-02-17T09:13:34.464Z,31.03
2019-02-17T09:18:40.319Z,31.13
2019-02-17T09:23:45.562Z,35.20
2019-02-17T09:28:51.003Z,34.53
2019-02-17T09:33:56.447Z,34.83
2019-02-17T09:39:02.006Z,27.13
2019-02-17T09:44:07.867Z,33.80
2019-02-17T09:49:13.357Z,32.80
2019-02-17T09:54:18.822Z,29.10
2019-02-17T09:59:24.399Z,30.97
2019-02-17T10:04:30.274Z,33.37
2019-02-17T10:09:35.774Z,30.63
2019-02-17T10:14:41.238Z,31.53
2019-02-17T10:19:47.395Z,34.43
2019-02-17T10:24:52.854Z,33.03
2019-02-17T10:29:58.356Z,34.90
2019-02-17T10:35:03.980Z,34.13
2019-02-17T10:40:12.196Z,30.47
2019-02-17T10:45:17.681Z,26.30
2019-02-17T10:50:23.163Z,26.17
2019-02-17T10:55:29.353Z,35.43
2019-02-17T11:00:35.166Z,37.80
2019-02-17T11:05:40.646Z,32.07
2019-02-17T11:10:46.107Z,33.30
2019-02-17T11:15:51.568Z,31.60
2019-02-17T11:20:57.022Z,33.57
2019-02-17T11:26:02.883Z,35.47
2019-02-17T11:31:08.330Z,31.50
2019-02-17T11:36:13.798Z,31.63
2019-02-17T11:41:19.306Z,32.87
2019-02-17T11:46:24.770Z,39.20
2019-02-17T11:51:30.293Z,34.53
2019-02-17T11:56:35.715Z,32.57
2019-02-17T12:01:41.225Z,33.67
2019-02-17T12:06:46.707Z,33.70
2019-02-17T12:11:52.553Z,37.10
2019-02-17T12:16:58.026Z,37.83
2019-02-17T12:22:09.907Z,34.67
2019-02-17T12:27:19.585Z,33.20
2019-02-17T12:32:29.731Z,31.23
2019-02-17T12:37:35.203Z,31.87
2019-02-17T12:42:40.650Z,36.00
2019-02-17T12:47:55.405Z,35.70
2019-02-17T12:52:51.963Z,30.23
2019-02-17T12:57:57.509Z,34.73
2019-02-17T13:03:03.598Z,32.80
2019-02-17T13:08:09.703Z,33.20
2019-02-17T13:13:15.499Z,33.63
2019-02-17T13:18:20.959Z,29.63
2019-02-17T13:23:27.130Z,30.90
2019-02-17T13:28:32.583Z,33.87
2019-02-17T13:33:39.440Z,34.17
2019-02-17T13:38:43.600Z,27.17
2019-02-17T13:43:49.448Z,36.07
2019-02-17T13:48:54.932Z,33.27
2019-02-17T13:54:00.398Z,30.67
2019-02-17T13:59:05.928Z,33.60
2019-02-17T14:04:11.767Z,29.70
2019-02-17T14:09:17.251Z,32.43
2019-02-17T14:14:22.706Z,28.93
2019-02-17T14:19:28.163Z,29.23
2019-02-17T14:24:33.611Z,31.93
2019-02-17T14:29:39.055Z,37.67
2019-02-17T14:34:44.582Z,31.13
2019-02-17T14:39:50.370Z,32.43
2019-02-17T14:44:55.831Z,28.97
2019-02-17T14:50:01.295Z,33.73
2019-02-17T14:55:06.903Z,33.37
2019-02-17T15:00:12.497Z,29.13
2019-02-17T15:05:17.991Z,32.83
2019-02-17T15:10:23.847Z,36.53
2019-02-17T15:15:29.325Z,33.17
2019-02-17T15:20:35.199Z,36.63
2019-02-17T15:25:40.678Z,28.67
2019-02-17T15:30:46.138Z,30.73
2019-02-17T15:35:51.668Z,32.53
2019-02-17T15:40:57.144Z,33.27
2019-02-17T15:46:02.655Z,25.60
2019-02-17T15:51:08.098Z,23.10
2019-02-17T15:56:13.912Z,25.37
2019-02-17T16:01:19.362Z,33.07
2019-02-17T16:06:24.844Z,37.07
2019-02-17T16:11:31.232Z,29.13
2019-02-17T16:16:36.691Z,27.30
2019-02-17T16:21:42.134Z,26.70
2019-02-17T16:26:47.587Z,38.20
2019-02-17T16:31:53.064Z,28.00
2019-02-17T16:36:58.855Z,33.93
2019-02-17T16:42:04.406Z,28.27
2019-02-17T16:47:09.844Z,38.90
2019-02-17T16:52:15.295Z,36.77
2019-02-17T16:57:21.333Z,61.67
2019-02-17T17:02:26.813Z,67.20
2019-02-17T17:07:32.269Z,51.30
2019-02-17T17:12:38.072Z,46.13
2019-02-17T17:17:43.871Z,39.53
2019-02-17T17:22:49.928Z,36.70
2019-02-17T17:27:55.744Z,33.20
2019-02-17T17:33:01.244Z,31.00
2019-02-17T17:38:07.144Z,40.47
2019-02-17T17:43:12.978Z,36.20
2019-02-17T17:48:18.611Z,31.23
2019-02-17T17:53:24.112Z,35.37
2019-02-17T17:58:29.891Z,34.93
2019-02-17T18:03:36.507Z,31.97
2019-02-17T18:08:42.256Z,30.57
2019-02-17T18:13:47.782Z,31.03
2019-02-17T18:18:53.703Z,28.77
2019-02-17T18:23:59.602Z,29.70
2019-02-17T18:29:05.142Z,27.37
2019-02-17T18:34:10.584Z,31.70
2019-02-17T18:39:16.367Z,27.43
2019-02-17T18:44:21.829Z,26.63
2019-02-17T18:49:27.556Z,26.97
2019-02-17T18:54:36.940Z,27.10
2019-02-17T18:59:42.735Z,28.87
2019-02-17T19:04:48.203Z,30.33
2019-02-17T19:09:55.043Z,27.57
2019-02-17T19:15:00.495Z,27.27
2019-02-17T19:20:08.393Z,28.03
2019-02-17T19:25:13.860Z,26.80
2019-02-17T19:30:19.646Z,29.93
2019-02-17T19:35:25.505Z,25.03
2019-02-17T19:40:31.052Z,31.00
2019-02-17T19:45:36.618Z,30.17
2019-02-17T19:50:42.139Z,30.07
2019-02-17T19:55:48.018Z,29.13
2019-02-17T20:00:53.534Z,29.33
2019-02-17T20:06:00.745Z,26.20
2019-02-17T20:11:06.294Z,25.60
2019-02-17T20:16:11.782Z,27.63
2019-02-17T20:21:17.291Z,34.03
2019-02-17T20:26:22.849Z,27.03
2019-02-17T20:31:29.800Z,23.97
2019-02-17T20:36:35.651Z,31.83
2019-02-17T20:41:41.255Z,31.90
2019-02-17T20:46:47.099Z,33.53
2019-02-17T20:51:52.635Z,31.73
2019-02-17T20:56:58.171Z,36.37
2019-02-17T21:02:03.746Z,38.13
2019-02-17T21:07:09.626Z,40.87
2019-02-17T21:12:15.317Z,36.70
2019-02-17T21:17:21.412Z,38.40
2019-02-17T21:22:27.364Z,38.50
2019-02-17T21:27:32.982Z,41.73
2019-02-17T21:32:39.143Z,43.50
2019-02-17T21:37:45.215Z,40.53
2019-02-17T21:42:50.671Z,40.00
2019-02-17T21:47:56.271Z,42.07
2019-02-17T21:53:02.099Z,41.43
2019-02-17T21:58:07.640Z,42.30
2019-02-17T22:03:13.491Z,36.17
2019-02-17T22:08:19.077Z,43.23
2019-02-17T22:13:24.551Z,42.13
2019-02-17T22:18:30.028Z,36.10
2019-02-17T22:23:35.474Z,42.10
2019-02-17T22:28:41.315Z,36.10
2019-02-17T22:33:46.873Z,39.77
2019-02-17T22:38:52.326Z,35.03
2019-02-17T22:43:57.804Z,35.47
2019-02-17T22:49:03.308Z,36.30
2019-02-17T22:54:09.163Z,34.97
2019-02-17T22:59:14.611Z,38.80
2019-02-17T23:04:20.102Z,39.87
2019-02-17T23:09:25.578Z,42.87
2019-02-17T23:14:31.042Z,39.63
2019-02-17T23:19:36.528Z,42.37
2019-02-17T23:24:42.034Z,44.40
2019-02-17T23:29:47.907Z,41.00
2019-02-17T23:34:53.399Z,37.00
2019-02-17T23:39:58.858Z,37.70
2019-02-17T23:45:04.487Z,37.40
2019-02-17T23:50:10.088Z,45.73
2019-02-17T23:55:15.535Z,44.93
